Time;durP1;ratioP1;P1;durP2;ratioP2;P2;SDS_P1;SDS_P2;PMS_P1;PMS_P2;Temp;Humidity;BMP_temperature;BMP_pressure;BME280_temperature;BME280_humidity;BME280_pressure;Samples;Min_cycle;Max_cycle;Signal;HPM_P1;HPM_P2
2022/01/11 00:00:29;;;;;;;123.18;27.90;;;-0.40;99.90;;;;;;5064358;28;20439;-66
2022/01/11 00:02:56;;;;;;;85.45;25.83;;;-0.40;99.90;;;;;;5061801;28;20044;-66
2022/01/11 00:05:31;;;;;;;126.88;32.20;;;-0.40;99.90;;;;;;5066563;28;20324;-66
2022/01/11 00:07:57;;;;;;;187.30;39.92;;;-0.40;99.90;;;;;;5067543;28;20505;-66
2022/01/11 00:12:56;;;;;;;85.75;25.33;;;-0.50;99.90;;;;;;5064044;28;20055;-66
2022/01/11 00:15:22;;;;;;;102.28;27.55;;;-0.50;99.90;;;;;;5068029;28;20567;-66
2022/01/11 00:17:48;;;;;;;102.82;26.77;;;-0.50;99.90;;;;;;5065079;28;20116;-66
2022/01/11 00:20:16;;;;;;;148.35;32.67;;;-0.60;99.90;;;;;;5065031;28;20120;-66
2022/01/11 00:24:27;;;;;;;136.45;28.98;;;-0.60;99.90;;;;;;5058815;28;20703;-66
2022/01/11 00:25:31;;;;;;;94.38;25.85;;;-0.60;99.90;;;;;;5067098;28;20055;-66
2022/01/11 00:27:58;;;;;;;87.25;26.42;;;-0.70;99.90;;;;;;5064213;28;20171;-66
2022/01/11 00:30:30;;;;;;;82.90;26.67;;;-0.60;99.90;;;;;;5064040;28;20048;-66
2022/01/11 00:32:58;;;;;;;126.03;28.35;;;-0.70;99.90;;;;;;5065887;28;20526;-66
2022/01/11 00:35:28;;;;;;;72.13;25.23;;;-0.70;99.90;;;;;;5048426;28;20063;-66
2022/01/11 00:37:54;;;;;;;95.30;27.70;;;-0.60;99.90;;;;;;5064151;28;20048;-66
2022/01/11 00:40:21;;;;;;;99.85;27.77;;;-0.70;99.90;;;;;;5064099;28;21452;-66
2022/01/11 00:42:47;;;;;;;84.10;26.20;;;-0.70;99.90;;;;;;5062637;28;20284;-66
2022/01/11 00:45:13;;;;;;;117.32;28.95;;;-0.70;99.90;;;;;;5063662;28;20044;-66
2022/01/11 00:47:40;;;;;;;166.70;36.72;;;-0.70;99.90;;;;;;5066133;28;20064;-66
2022/01/11 00:50:07;;;;;;;71.82;27.65;;;-0.70;99.90;;;;;;5063101;28;20484;-66
2022/01/11 00:52:34;;;;;;;118.13;33.47;;;-0.70;99.90;;;;;;5061780;28;20044;-66
2022/01/11 00:54:59;;;;;;;96.45;30.70;;;-0.70;99.90;;;;;;5067826;28;20041;-66
2022/01/11 00:57:25;;;;;;;154.32;36.75;;;-0.70;99.90;;;;;;5064019;28;20029;-66
2022/01/11 00:59:52;;;;;;;73.60;28.98;;;-0.70;99.90;;;;;;5062257;28;20184;-66
2022/01/11 01:02:18;;;;;;;117.93;35.78;;;-0.70;99.90;;;;;;5064344;28;20048;-66
2022/01/11 01:04:44;;;;;;;67.53;27.05;;;-0.70;99.90;;;;;;5064333;28;20047;-66
2022/01/11 01:07:10;;;;;;;65.25;28.88;;;-0.70;99.90;;;;;;5062044;28;20443;-66
2022/01/11 01:09:46;;;;;;;69.95;28.35;;;-0.80;99.90;;;;;;5066038;28;20365;-66
2022/01/11 01:12:12;;;;;;;69.90;28.02;;;-0.70;99.90;;;;;;5063713;28;20131;-66
2022/01/11 01:14:38;;;;;;;78.78;28.70;;;-0.80;99.90;;;;;;5065177;28;20100;-66
2022/01/11 01:17:03;;;;;;;79.35;30.15;;;-0.80;99.90;;;;;;5063061;28;20067;-66
2022/01/11 01:19:29;;;;;;;76.50;29.05;;;-0.80;99.90;;;;;;5065163;28;20025;-66
2022/01/11 01:21:55;;;;;;;75.90;30.95;;;-0.70;99.90;;;;;;5059543;28;20183;-66
2022/01/11 01:24:22;;;;;;;73.18;28.65;;;-0.80;99.90;;;;;;5040351;28;20136;-66
2022/01/11 01:26:48;;;;;;;63.40;26.85;;;-0.80;99.90;;;;;;5061266;28;20035;-66
2022/01/11 01:29:14;;;;;;;66.22;30.45;;;-0.80;99.90;;;;;;5056859;28;20041;-66
2022/01/11 01:31:40;;;;;;;85.63;29.80;;;-0.80;99.90;;;;;;5060298;28;20606;-66
2022/01/11 01:34:06;;;;;;;84.15;32.55;;;-0.80;99.90;;;;;;5060901;28;20039;-66
2022/01/11 01:36:32;;;;;;;79.70;30.45;;;-0.80;99.90;;;;;;5061496;28;20127;-66
2022/01/11 01:38:58;;;;;;;84.07;30.42;;;-0.80;99.90;;;;;;5062869;28;20369;-66
2022/01/11 01:41:24;;;;;;;110.05;29.83;;;-0.80;99.90;;;;;;5064530;28;20106;-66
2022/01/11 01:43:54;;;;;;;93.43;29.10;;;-0.80;99.90;;;;;;5062447;28;20032;-67
2022/01/11 01:46:22;;;;;;;106.43;30.42;;;-0.80;99.90;;;;;;5060614;28;20060;-67
2022/01/11 01:48:49;;;;;;;94.45;29.38;;;-0.80;99.90;;;;;;5065090;28;20052;-66
2022/01/11 01:51:16;;;;;;;132.20;34.85;;;-0.80;99.90;;;;;;5059777;28;20056;-66
2022/01/11 01:53:46;;;;;;;84.97;28.00;;;-0.80;99.90;;;;;;5062438;28;20048;-66
2022/01/11 01:56:12;;;;;;;95.15;27.92;;;-0.80;99.90;;;;;;5074950;28;20131;-67
2022/01/11 01:58:38;;;;;;;155.52;33.92;;;-0.80;99.90;;;;;;5059950;28;20036;-67
2022/01/11 02:01:05;;;;;;;126.57;30.70;;;-0.90;99.90;;;;;;5060367;28;20044;-67
2022/01/11 02:03:37;;;;;;;173.60;37.70;;;-0.90;99.90;;;;;;5059686;28;20049;-67
2022/01/11 02:06:05;;;;;;;158.57;33.75;;;-0.90;99.90;;;;;;5062474;28;20080;-67
2022/01/11 02:08:31;;;;;;;191.07;37.00;;;-0.90;99.90;;;;;;5060991;28;20044;-67
2022/01/11 02:10:57;;;;;;;175.18;38.28;;;-0.90;99.90;;;;;;5063832;28;20507;-67
2022/01/11 02:13:23;;;;;;;119.57;29.13;;;-0.90;99.90;;;;;;5061641;28;20064;-67
2022/01/11 02:15:50;;;;;;;90.63;28.17;;;-0.90;99.90;;;;;;5059955;28;20040;-67
2022/01/11 02:18:26;;;;;;;177.75;36.60;;;-0.90;99.90;;;;;;5059403;28;20041;-67
2022/01/11 02:20:55;;;;;;;114.85;28.83;;;-0.90;99.90;;;;;;5064574;28;20071;-68
2022/01/11 02:23:21;;;;;;;150.40;36.42;;;-0.80;99.90;;;;;;5060644;28;20040;-67
2022/01/11 02:25:48;;;;;;;141.43;33.15;;;-0.90;99.90;;;;;;5066086;28;20408;-67
2022/01/11 02:28:17;;;;;;;119.15;32.50;;;-0.90;99.90;;;;;;5061539;28;20075;-67
2022/01/11 02:30:44;;;;;;;125.60;31.88;;;-0.90;99.90;;;;;;5061919;28;20403;-68
2022/01/11 02:33:31;;;;;;;141.68;32.47;;;-0.90;99.90;;;;;;5063397;28;20036;-68
2022/01/11 02:35:56;;;;;;;147.55;36.67;;;-0.90;99.90;;;;;;5062687;28;20425;-68
2022/01/11 02:38:22;;;;;;;116.07;31.95;;;-0.80;99.90;;;;;;5060291;28;20068;-68
2022/01/11 02:40:48;;;;;;;146.80;33.70;;;-0.80;99.90;;;;;;5056155;28;20075;-68
2022/01/11 02:43:13;;;;;;;148.25;35.83;;;-0.80;99.90;;;;;;5058900;28;20084;-68
2022/01/11 02:45:39;;;;;;;131.70;34.25;;;-0.80;99.90;;;;;;5063144;28;20052;-68
2022/01/11 02:48:05;;;;;;;130.23;34.42;;;-0.80;99.90;;;;;;5042713;28;20057;-68
2022/01/11 02:50:31;;;;;;;121.05;33.80;;;-0.80;99.90;;;;;;5063824;28;20037;-68
2022/01/11 02:52:57;;;;;;;116.50;34.67;;;-0.80;99.90;;;;;;5060178;28;20093;-68
2022/01/11 02:55:23;;;;;;;259.42;48.90;;;-0.80;99.90;;;;;;5062085;28;20048;-68
2022/01/11 02:57:48;;;;;;;138.13;35.05;;;-0.80;99.90;;;;;;5046551;28;20043;-68
2022/01/11 03:00:17;;;;;;;151.60;33.95;;;-0.70;99.90;;;;;;5060905;28;20037;-68
2022/01/11 03:02:43;;;;;;;227.25;43.35;;;-0.70;99.90;;;;;;5055846;28;20048;-68
2022/01/11 03:05:11;;;;;;;171.40;39.38;;;-0.60;99.90;;;;;;5066676;28;20044;-68
2022/01/11 03:07:38;;;;;;;156.68;37.30;;;-0.60;99.90;;;;;;5063342;28;20057;-68
2022/01/11 03:12:53;;;;;;;142.35;35.90;;;-0.60;99.90;;;;;;5059905;28;20057;-68
2022/01/11 03:15:20;;;;;;;250.95;45.58;;;-0.50;99.90;;;;;;5049726;28;20033;-67
2022/01/11 03:17:46;;;;;;;179.98;37.22;;;-0.50;99.90;;;;;;5063804;28;20446;-68
2022/01/11 03:20:12;;;;;;;156.88;36.10;;;-0.50;99.90;;;;;;5061527;28;20066;-67
2022/01/11 03:22:38;;;;;;;157.60;37.33;;;-0.40;99.90;;;;;;5060812;28;20090;-67
2022/01/11 03:25:05;;;;;;;123.10;35.10;;;-0.40;99.90;;;;;;5061454;28;20036;-67
2022/01/11 03:27:32;;;;;;;111.85;33.10;;;-0.40;99.90;;;;;;5044585;28;20048;-67
2022/01/11 03:29:57;;;;;;;131.43;35.28;;;-0.40;99.90;;;;;;5042262;28;20060;-67
2022/01/11 03:32:23;;;;;;;104.18;32.42;;;-0.40;99.90;;;;;;5061508;28;20146;-67
2022/01/11 03:34:49;;;;;;;123.22;36.22;;;-0.40;99.90;;;;;;5060300;28;20131;-67
2022/01/11 03:37:17;;;;;;;99.00;32.25;;;-0.40;99.90;;;;;;5059308;28;20150;-67
2022/01/11 03:39:44;;;;;;;135.45;38.58;;;-0.40;99.90;;;;;;5058353;28;20550;-67
2022/01/11 03:42:10;;;;;;;119.15;33.88;;;-0.40;99.90;;;;;;5063033;28;20071;-67
2022/01/11 03:44:36;;;;;;;133.45;35.15;;;-0.40;99.90;;;;;;5067564;28;20104;-67
2022/01/11 03:47:02;;;;;;;107.38;33.63;;;-0.40;99.90;;;;;;5062859;28;20223;-67
2022/01/11 03:49:28;;;;;;;142.65;35.97;;;-0.30;99.90;;;;;;5064897;28;20052;-67
2022/01/11 03:51:54;;;;;;;101.95;31.20;;;-0.40;99.90;;;;;;5068111;28;20028;-67
2022/01/11 03:54:29;;;;;;;107.22;32.60;;;-0.40;99.90;;;;;;5069951;28;20214;-67
2022/01/11 03:56:55;;;;;;;132.32;35.20;;;-0.30;99.90;;;;;;5064378;28;20041;-67
2022/01/11 03:59:22;;;;;;;112.45;33.70;;;-0.30;99.90;;;;;;5063331;28;20044;-67
2022/01/11 04:01:48;;;;;;;107.22;33.50;;;-0.30;99.90;;;;;;5046102;28;20052;-67
2022/01/11 04:04:15;;;;;;;121.80;37.33;;;-0.30;99.90;;;;;;5064298;28;20052;-67
2022/01/11 04:06:41;;;;;;;121.93;36.35;;;-0.30;99.90;;;;;;5066597;28;20628;-67
2022/01/11 04:09:09;;;;;;;118.35;36.83;;;-0.30;99.90;;;;;;5066525;28;20174;-67
2022/01/11 04:11:35;;;;;;;126.20;37.60;;;-0.30;99.90;;;;;;5044197;28;20056;-67
2022/01/11 04:14:01;;;;;;;136.88;39.10;;;-0.30;99.90;;;;;;5066809;28;20024;-67
2022/01/11 04:16:27;;;;;;;149.68;40.17;;;-0.30;99.90;;;;;;5063628;28;20043;-67
2022/01/11 04:18:52;;;;;;;151.27;41.78;;;-0.30;99.90;;;;;;5062207;28;20543;-67
2022/01/11 04:21:18;;;;;;;122.50;38.72;;;-0.30;99.90;;;;;;5063215;28;20036;-67
2022/01/11 04:23:44;;;;;;;139.05;38.42;;;-0.30;99.90;;;;;;5064785;28;20101;-67
2022/01/11 04:26:10;;;;;;;131.13;39.42;;;-0.30;99.90;;;;;;5064462;28;20499;-67
2022/01/11 04:28:36;;;;;;;156.18;41.50;;;-0.30;99.90;;;;;;5063888;28;20028;-67
2022/01/11 04:31:02;;;;;;;152.43;42.63;;;-0.30;99.90;;;;;;5063391;28;20075;-67
2022/01/11 04:33:30;;;;;;;120.70;41.00;;;-0.30;99.90;;;;;;5062085;28;20128;-67
2022/01/11 04:35:58;;;;;;;132.20;40.13;;;-0.30;99.90;;;;;;5059303;28;20048;-67
2022/01/11 04:38:26;;;;;;;138.23;40.03;;;-0.20;99.90;;;;;;5064651;28;20044;-67
2022/01/11 04:40:53;;;;;;;117.93;39.67;;;-0.30;99.90;;;;;;5062352;28;20064;-67
2022/01/11 04:43:19;;;;;;;122.63;39.35;;;-0.30;99.90;;;;;;5064664;28;20032;-67
2022/01/11 04:45:47;;;;;;;131.20;39.47;;;-0.30;99.90;;;;;;5067249;28;20071;-67
2022/01/11 04:48:14;;;;;;;123.18;40.65;;;-0.30;99.90;;;;;;5062209;28;20043;-67
2022/01/11 04:50:40;;;;;;;121.93;40.53;;;-0.30;99.90;;;;;;5064789;28;20045;-67
2022/01/11 04:53:05;;;;;;;124.78;39.58;;;-0.30;99.90;;;;;;5060039;28;20499;-67
2022/01/11 04:55:32;;;;;;;139.43;43.30;;;-0.30;99.90;;;;;;5062876;28;20270;-67
2022/01/11 04:57:57;;;;;;;116.60;38.33;;;-0.30;99.90;;;;;;5063532;28;20040;-67
2022/01/11 05:00:24;;;;;;;132.55;43.28;;;-0.20;99.90;;;;;;5065826;28;20052;-67
2022/01/11 05:02:50;;;;;;;126.32;40.75;;;-0.20;99.90;;;;;;5043675;28;20048;-67
2022/01/11 05:05:16;;;;;;;169.68;45.60;;;-0.30;99.90;;;;;;5063186;28;20101;-67
2022/01/11 05:07:43;;;;;;;124.70;39.40;;;-0.30;99.90;;;;;;5064261;28;20052;-67
2022/01/11 05:10:09;;;;;;;106.00;39.17;;;-0.20;99.90;;;;;;5064625;28;20097;-67
2022/01/11 05:12:38;;;;;;;107.38;39.65;;;-0.20;99.90;;;;;;5067939;28;20062;-67
2022/01/11 05:15:08;;;;;;;112.22;40.35;;;-0.30;99.90;;;;;;5067623;28;20048;-67
2022/01/11 05:17:34;;;;;;;115.18;38.72;;;-0.20;99.90;;;;;;5066731;28;20048;-67
2022/01/11 05:19:59;;;;;;;108.55;40.30;;;-0.20;99.90;;;;;;5067656;28;20039;-67
2022/01/11 05:22:25;;;;;;;92.72;36.53;;;-0.30;99.90;;;;;;5060878;28;20507;-67
2022/01/11 05:24:51;;;;;;;82.88;35.83;;;-0.20;99.90;;;;;;5064937;28;20050;-67
2022/01/11 05:27:16;;;;;;;91.20;38.00;;;-0.20;99.90;;;;;;5062351;28;20105;-67
2022/01/11 05:29:42;;;;;;;111.10;38.47;;;-0.20;99.90;;;;;;5065899;28;20407;-67
2022/01/11 05:32:08;;;;;;;93.10;36.70;;;-0.20;99.90;;;;;;5075411;28;20040;-67
2022/01/11 05:34:34;;;;;;;96.55;36.97;;;-0.20;99.90;;;;;;5064268;28;20043;-67
2022/01/11 05:36:59;;;;;;;86.13;36.13;;;-0.20;99.90;;;;;;5054457;28;20452;-67
2022/01/11 05:39:25;;;;;;;94.82;36.25;;;-0.20;99.90;;;;;;5057150;28;20033;-67
2022/01/11 05:41:51;;;;;;;78.53;34.25;;;-0.20;99.90;;;;;;5056237;28;20417;-67
2022/01/11 05:44:17;;;;;;;79.13;35.75;;;-0.20;99.90;;;;;;5059387;28;20059;-67
2022/01/11 05:46:43;;;;;;;79.82;33.38;;;-0.20;99.90;;;;;;5059420;28;20036;-67
2022/01/11 05:49:08;;;;;;;86.57;34.38;;;-0.10;99.90;;;;;;5040306;28;20519;-67
2022/01/11 05:51:34;;;;;;;83.05;33.30;;;-0.20;99.90;;;;;;5055554;28;20369;-67
2022/01/11 05:54:00;;;;;;;76.28;33.20;;;-0.20;99.90;;;;;;5051504;28;20068;-67
2022/01/11 05:56:27;;;;;;;77.72;34.13;;;-0.20;99.90;;;;;;5059726;28;20045;-67
2022/01/11 05:58:52;;;;;;;81.07;34.90;;;-0.20;99.90;;;;;;5052879;28;20064;-67
2022/01/11 06:01:19;;;;;;;69.40;33.22;;;-0.20;99.90;;;;;;5057742;28;20045;-67
2022/01/11 06:03:45;;;;;;;79.38;33.15;;;-0.20;99.90;;;;;;5054629;28;20052;-66
2022/01/11 06:06:11;;;;;;;75.60;32.78;;;-0.20;99.90;;;;;;5059852;28;20052;-66
2022/01/11 06:08:37;;;;;;;87.82;33.75;;;-0.20;99.90;;;;;;5051558;28;20040;-66
2022/01/11 06:11:03;;;;;;;77.90;34.33;;;-0.20;99.90;;;;;;5057513;28;20043;-66
2022/01/11 06:13:29;;;;;;;75.85;33.03;;;-0.30;99.90;;;;;;5061225;28;20037;-66
2022/01/11 06:15:54;;;;;;;79.20;31.63;;;-0.20;99.90;;;;;;5060222;28;20043;-66
2022/01/11 06:18:20;;;;;;;62.90;30.58;;;-0.20;99.90;;;;;;5067019;28;20108;-67
2022/01/11 06:20:46;;;;;;;68.47;30.52;;;-0.20;99.90;;;;;;5058152;28;20124;-67
2022/01/11 06:23:11;;;;;;;67.30;31.00;;;-0.30;99.90;;;;;;5062274;28;20036;-67
2022/01/11 06:25:38;;;;;;;71.55;29.77;;;-0.30;99.90;;;;;;5057260;28;20029;-67
2022/01/11 06:28:04;;;;;;;68.55;30.52;;;-0.30;99.90;;;;;;5054327;28;20044;-67
2022/01/11 06:30:30;;;;;;;64.75;29.88;;;-0.30;99.90;;;;;;5062912;28;20044;-67
2022/01/11 06:32:56;;;;;;;65.20;29.98;;;-0.30;99.90;;;;;;5057807;28;20380;-67
2022/01/11 06:35:24;;;;;;;61.22;28.48;;;-0.40;99.90;;;;;;5055696;28;20041;-67
2022/01/11 06:37:50;;;;;;;59.15;27.52;;;-0.40;99.90;;;;;;5061684;28;20036;-67
2022/01/11 06:40:18;;;;;;;57.20;27.90;;;-0.40;99.90;;;;;;5059781;28;20388;-67
2022/01/11 06:42:50;;;;;;;52.95;27.38;;;-0.40;99.90;;;;;;5048728;28;20497;-67
2022/01/11 06:45:17;;;;;;;50.35;25.55;;;-0.30;99.90;;;;;;5060756;28;20052;-67
2022/01/11 06:47:43;;;;;;;52.67;27.15;;;-0.30;99.90;;;;;;5061925;28;20037;-68
2022/01/11 06:50:10;;;;;;;52.50;26.50;;;-0.40;99.90;;;;;;5055845;28;20045;-67
2022/01/11 06:52:36;;;;;;;55.65;27.25;;;-0.30;99.90;;;;;;5058465;28;20037;-67
2022/01/11 06:55:04;;;;;;;49.20;25.27;;;-0.30;99.90;;;;;;5057054;28;20056;-67
2022/01/11 06:57:30;;;;;;;59.25;26.67;;;-0.40;99.90;;;;;;5054255;28;20404;-67
2022/01/11 06:59:56;;;;;;;50.97;25.55;;;-0.30;99.90;;;;;;5057849;28;20052;-67
2022/01/11 07:02:21;;;;;;;52.80;26.70;;;-0.40;99.90;;;;;;5059285;28;20045;-67
2022/01/11 07:04:47;;;;;;;47.67;25.20;;;-0.40;99.90;;;;;;5062950;28;20098;-67
2022/01/11 07:07:13;;;;;;;51.35;24.63;;;-0.40;99.90;;;;;;5055389;28;20048;-67
2022/01/11 07:09:39;;;;;;;45.28;24.63;;;-0.40;99.90;;;;;;5041446;28;20131;-68
2022/01/11 07:12:05;;;;;;;45.55;23.80;;;-0.40;99.90;;;;;;5037585;28;20136;-67
2022/01/11 07:14:31;;;;;;;50.35;24.63;;;-0.40;99.90;;;;;;5063476;28;20037;-67
2022/01/11 07:16:56;;;;;;;41.95;22.40;;;-0.40;99.90;;;;;;5060547;28;20041;-67
2022/01/11 07:19:22;;;;;;;45.03;23.42;;;-0.40;99.90;;;;;;5059672;28;20578;-67
2022/01/11 07:21:48;;;;;;;44.60;23.05;;;-0.40;99.90;;;;;;5058995;28;20043;-68
2022/01/11 07:24:16;;;;;;;43.75;23.23;;;-0.40;99.90;;;;;;5063424;28;20492;-67
2022/01/11 07:26:42;;;;;;;43.70;23.85;;;-0.40;99.90;;;;;;5056827;28;20487;-67
2022/01/11 07:29:08;;;;;;;43.40;23.65;;;-0.40;99.90;;;;;;5065044;28;20045;-67
2022/01/11 07:31:37;;;;;;;44.92;23.27;;;-0.40;99.90;;;;;;5040087;28;20052;-67
2022/01/11 07:34:06;;;;;;;45.20;22.70;;;-0.50;99.90;;;;;;5051216;28;20347;-67
2022/01/11 07:36:32;;;;;;;37.33;20.55;;;-0.40;99.90;;;;;;5055731;28;20044;-67
2022/01/11 07:38:58;;;;;;;42.60;21.20;;;-0.40;99.90;;;;;;5060825;28;20036;-67
2022/01/11 07:41:26;;;;;;;43.00;23.20;;;-0.40;99.90;;;;;;5063064;28;20045;-67
2022/01/11 07:43:52;;;;;;;43.50;21.92;;;-0.40;99.90;;;;;;5059745;28;20056;-68
2022/01/11 07:46:18;;;;;;;41.35;22.67;;;-0.30;99.90;;;;;;5056405;28;20127;-68
2022/01/11 07:48:44;;;;;;;38.80;20.77;;;-0.30;99.90;;;;;;5060744;28;20068;-68
2022/01/11 07:51:10;;;;;;;38.45;21.88;;;-0.30;99.90;;;;;;5063147;28;20040;-68
2022/01/11 07:53:36;;;;;;;39.22;21.70;;;-0.30;99.90;;;;;;5055363;28;20423;-68
2022/01/11 07:56:02;;;;;;;34.22;20.90;;;-0.20;99.90;;;;;;5061207;28;20041;-68
2022/01/11 07:58:28;;;;;;;36.95;19.90;;;-0.20;99.90;;;;;;5065571;28;20151;-68
2022/01/11 08:00:54;;;;;;;38.58;21.02;;;-0.20;99.90;;;;;;5061902;28;20040;-68
2022/01/11 08:03:20;;;;;;;35.83;19.73;;;-0.10;99.90;;;;;;5062462;28;20150;-68
2022/01/11 08:05:46;;;;;;;43.28;20.67;;;-0.10;99.90;;;;;;5058752;28;20075;-68
2022/01/11 08:08:12;;;;;;;31.80;18.45;;;-0.10;99.90;;;;;;5055276;28;20048;-68
2022/01/11 08:10:38;;;;;;;39.30;20.65;;;0.00;99.90;;;;;;5059078;28;20527;-67
2022/01/11 08:13:06;;;;;;;35.22;19.77;;;0.00;99.90;;;;;;5059238;28;20099;-67
2022/01/11 08:15:33;;;;;;;38.20;19.92;;;0.10;99.90;;;;;;5059866;28;20053;-67
2022/01/11 08:17:59;;;;;;;28.35;17.73;;;0.10;99.90;;;;;;5052659;28;20477;-67
2022/01/11 08:20:25;;;;;;;36.85;19.90;;;0.10;99.90;;;;;;5060992;28;20043;-67
2022/01/11 08:22:53;;;;;;;35.50;19.35;;;0.20;99.90;;;;;;5062262;28;20052;-67
2022/01/11 08:25:20;;;;;;;35.08;20.67;;;0.20;99.90;;;;;;5054574;28;20076;-67
2022/01/11 08:27:46;;;;;;;32.75;19.27;;;0.30;99.90;;;;;;5054815;28;20084;-67
2022/01/11 08:30:12;;;;;;;31.02;18.58;;;0.40;99.90;;;;;;5055030;28;20167;-67
2022/01/11 08:32:38;;;;;;;31.90;19.77;;;0.40;99.90;;;;;;5060444;28;20398;-68
2022/01/11 08:35:05;;;;;;;30.63;18.20;;;0.40;99.90;;;;;;5059460;28;20040;-67
2022/01/11 08:37:30;;;;;;;30.63;19.08;;;0.50;99.90;;;;;;5053267;28;20041;-67
2022/01/11 08:39:56;;;;;;;29.15;17.02;;;0.50;99.90;;;;;;5063139;28;20044;-67
2022/01/11 08:42:23;;;;;;;29.35;18.38;;;0.60;99.90;;;;;;5056552;28;20032;-67
2022/01/11 08:44:52;;;;;;;29.67;18.23;;;0.70;99.90;;;;;;5057258;28;20109;-67
2022/01/11 08:47:18;;;;;;;27.23;17.48;;;0.70;99.90;;;;;;5059136;28;20450;-67
2022/01/11 08:49:44;;;;;;;30.35;17.65;;;0.70;99.90;;;;;;5060554;28;20049;-67
2022/01/11 08:52:10;;;;;;;29.52;17.13;;;0.70;99.90;;;;;;5064749;28;20131;-67
2022/01/11 08:54:37;;;;;;;29.92;18.45;;;0.60;99.90;;;;;;5058715;28;20036;-67
2022/01/11 08:57:03;;;;;;;25.17;17.05;;;0.50;99.90;;;;;;5057639;28;20433;-67
2022/01/11 08:59:29;;;;;;;28.98;17.52;;;0.50;99.90;;;;;;5061270;28;20434;-67
2022/01/11 09:01:57;;;;;;;28.25;17.90;;;0.40;99.90;;;;;;5076309;28;20053;-67
2022/01/11 09:04:23;;;;;;;27.35;17.25;;;0.40;99.90;;;;;;5058321;28;20052;-67
2022/01/11 09:06:50;;;;;;;30.45;17.95;;;0.40;99.90;;;;;;5058860;28;20044;-67
2022/01/11 09:09:18;;;;;;;30.45;19.63;;;0.40;99.90;;;;;;5059504;28;20076;-67
2022/01/11 09:11:45;;;;;;;30.67;18.58;;;0.40;99.90;;;;;;5062816;28;20083;-67
2022/01/11 09:14:11;;;;;;;29.95;19.45;;;0.40;99.90;;;;;;5055658;28;20836;-67
2022/01/11 09:16:37;;;;;;;31.67;19.77;;;0.40;99.90;;;;;;5059706;28;20109;-67
2022/01/11 09:19:03;;;;;;;36.95;20.10;;;0.40;99.90;;;;;;5055692;28;20045;-67
2022/01/11 09:21:31;;;;;;;32.63;19.30;;;0.50;99.90;;;;;;5062861;28;20179;-67
2022/01/11 09:23:57;;;;;;;36.50;20.45;;;0.50;99.90;;;;;;5062162;28;20190;-67
2022/01/11 09:26:23;;;;;;;29.65;19.92;;;0.60;99.90;;;;;;5062207;28;20807;-67
2022/01/11 09:28:49;;;;;;;30.25;18.60;;;0.70;99.90;;;;;;5057912;28;20158;-67
2022/01/11 09:31:15;;;;;;;37.28;21.67;;;0.70;99.90;;;;;;5059306;28;20127;-67
2022/01/11 09:33:41;;;;;;;31.20;19.38;;;0.80;99.90;;;;;;5056658;28;20631;-67
2022/01/11 09:36:07;;;;;;;34.25;21.13;;;0.80;99.90;;;;;;5056754;28;20226;-67
2022/01/11 09:38:33;;;;;;;32.10;20.65;;;0.90;99.90;;;;;;5062647;28;20055;-67
2022/01/11 09:40:59;;;;;;;31.17;20.52;;;0.90;99.90;;;;;;5060095;28;20206;-67
2022/01/11 09:43:26;;;;;;;34.28;19.77;;;0.90;99.90;;;;;;5057544;28;20037;-67
2022/01/11 09:45:54;;;;;;;30.75;19.70;;;0.90;99.90;;;;;;5056176;28;20041;-67
2022/01/11 09:48:21;;;;;;;36.67;20.67;;;0.90;99.90;;;;;;5056889;28;20416;-67
2022/01/11 09:50:47;;;;;;;30.80;18.67;;;0.90;99.90;;;;;;5061674;28;20052;-67
2022/01/11 09:53:13;;;;;;;30.25;18.95;;;0.90;99.90;;;;;;5059879;28;20036;-67
2022/01/11 09:55:39;;;;;;;28.67;19.58;;;1.00;99.90;;;;;;5061935;28;20048;-67
2022/01/11 09:58:05;;;;;;;29.58;19.85;;;1.00;99.90;;;;;;5055327;28;20072;-67
2022/01/11 10:00:31;;;;;;;30.88;19.20;;;1.00;99.90;;;;;;5062513;28;20047;-67
2022/01/11 10:02:57;;;;;;;29.60;20.13;;;1.00;99.90;;;;;;5056742;28;20075;-67
2022/01/11 10:05:24;;;;;;;27.85;18.98;;;1.00;99.90;;;;;;5059986;28;20053;-67
2022/01/11 10:07:50;;;;;;;34.15;19.88;;;1.00;99.90;;;;;;5060928;28;20121;-67
2022/01/11 10:10:23;;;;;;;27.88;18.33;;;1.00;99.90;;;;;;5058311;28;20090;-67
2022/01/11 10:12:51;;;;;;;30.80;19.10;;;1.00;99.90;;;;;;5068653;28;20060;-67
2022/01/11 10:15:40;;;;;;;31.05;19.80;;;1.10;99.90;;;;;;5058690;28;20047;-67
2022/01/11 10:18:06;;;;;;;30.45;19.48;;;1.10;99.90;;;;;;5057802;28;20036;-67
2022/01/11 10:20:35;;;;;;;29.10;19.15;;;1.10;99.90;;;;;;5053253;28;20397;-67
2022/01/11 10:23:05;;;;;;;32.92;20.88;;;1.20;99.90;;;;;;5054594;28;20048;-65
2022/01/11 10:25:43;;;;;;;28.80;19.95;;;1.20;99.90;;;;;;5060355;28;20134;-66
2022/01/11 10:28:09;;;;;;;32.50;20.10;;;1.30;99.90;;;;;;5057736;28;20405;-65
2022/01/11 10:30:35;;;;;;;30.42;21.23;;;1.30;99.90;;;;;;5064292;28;20052;-66
2022/01/11 10:33:06;;;;;;;31.45;20.15;;;1.30;99.90;;;;;;5058487;28;20041;-66
2022/01/11 10:35:42;;;;;;;26.88;19.30;;;1.40;99.90;;;;;;5062203;28;20501;-66
2022/01/11 10:38:08;;;;;;;30.65;19.23;;;1.40;99.90;;;;;;5055320;28;20500;-66
2022/01/11 10:40:38;;;;;;;27.40;19.45;;;1.40;99.90;;;;;;5053827;28;20045;-66
2022/01/11 10:43:06;;;;;;;30.02;18.73;;;1.40;99.90;;;;;;5059209;28;20044;-66
2022/01/11 10:45:33;;;;;;;25.15;18.60;;;1.60;99.90;;;;;;5057586;28;20061;-66
2022/01/11 10:48:11;;;;;;;28.83;18.38;;;1.60;99.90;;;;;;5053557;28;20511;-66
2022/01/11 10:50:43;;;;;;;23.85;16.88;;;1.70;99.90;;;;;;5060439;28;20102;-66
2022/01/11 10:53:21;;;;;;;28.67;18.08;;;1.70;99.90;;;;;;5058363;28;20461;-66
2022/01/11 10:55:52;;;;;;;25.35;18.40;;;1.80;99.90;;;;;;5056871;28;20435;-66
2022/01/11 10:58:19;;;;;;;25.23;17.98;;;1.80;99.90;;;;;;5048477;28;20037;-66
2022/01/11 11:00:50;;;;;;;28.63;18.92;;;1.80;99.90;;;;;;5059625;28;20447;-66
2022/01/11 11:03:35;;;;;;;26.52;17.73;;;1.80;99.90;;;;;;5064003;28;20421;-66
2022/01/11 11:06:07;;;;;;;27.10;18.25;;;1.90;99.90;;;;;;5059825;28;20493;-66
2022/01/11 11:08:39;;;;;;;27.52;18.60;;;1.80;99.90;;;;;;5053671;28;20037;-66
2022/01/11 11:11:07;;;;;;;28.92;19.45;;;1.90;99.90;;;;;;5064609;28;20043;-66
2022/01/11 11:13:42;;;;;;;28.05;18.40;;;1.90;99.90;;;;;;5054572;28;20037;-66
2022/01/11 11:16:14;;;;;;;24.55;17.90;;;2.00;99.90;;;;;;5063152;28;20031;-66
2022/01/11 11:18:41;;;;;;;29.42;17.85;;;1.90;99.90;;;;;;5052270;28;20045;-66
2022/01/11 11:21:36;;;;;;;26.33;17.92;;;1.90;99.90;;;;;;5057288;28;20053;-66
2022/01/11 11:24:07;;;;;;;24.67;16.80;;;1.90;99.90;;;;;;5059541;28;20029;-66
2022/01/11 11:26:46;;;;;;;26.35;16.88;;;1.90;99.90;;;;;;5061493;28;20037;-66
2022/01/11 11:29:12;;;;;;;22.23;16.30;;;1.80;99.90;;;;;;5048455;28;20049;-66
2022/01/11 11:31:39;;;;;;;23.75;16.95;;;1.80;99.90;;;;;;5056215;28;20547;-66
2022/01/11 11:34:08;;;;;;;25.55;17.27;;;1.80;99.90;;;;;;5052698;28;20407;-66
2022/01/11 11:36:38;;;;;;;26.98;17.35;;;1.80;99.90;;;;;;5061929;28;20120;-66
2022/01/11 11:39:19;;;;;;;24.40;15.82;;;1.70;99.90;;;;;;5060327;28;20044;-66
2022/01/11 11:41:54;;;;;;;26.25;18.27;;;1.80;99.90;;;;;;5056436;28;20416;-66
2022/01/11 11:44:25;;;;;;;30.05;17.45;;;1.80;99.90;;;;;;5064935;28;20469;-67
2022/01/11 11:47:03;;;;;;;31.52;17.85;;;1.80;99.90;;;;;;5054565;28;20373;-67
2022/01/11 11:49:49;;;;;;;27.92;17.42;;;2.00;99.90;;;;;;5057962;28;20489;-67
2022/01/11 11:52:27;;;;;;;30.38;17.92;;;2.00;99.90;;;;;;5061171;28;20545;-67
2022/01/11 11:55:05;;;;;;;25.48;16.70;;;2.10;99.90;;;;;;5061486;28;20446;-67
2022/01/11 11:57:33;;;;;;;28.02;18.23;;;2.20;99.90;;;;;;5058298;28;20041;-67
2022/01/11 12:00:19;;;;;;;26.98;17.45;;;2.30;99.90;;;;;;5067296;28;20121;-67
2022/01/11 12:02:52;;;;;;;28.90;17.40;;;2.40;99.90;;;;;;5059337;28;20469;-67
2022/01/11 12:05:42;;;;;;;28.25;17.52;;;2.60;99.90;;;;;;5054882;28;20390;-67
2022/01/11 12:08:34;;;;;;;24.48;15.15;;;2.70;99.90;;;;;;5063406;28;20036;-65
2022/01/11 12:11:05;;;;;;;29.63;18.73;;;3.00;99.90;;;;;;5064529;28;20496;-66
2022/01/11 12:13:50;;;;;;;25.75;16.48;;;3.20;99.90;;;;;;5063763;28;20055;-64
2022/01/11 12:16:29;;;;;;;26.88;16.30;;;3.40;99.90;;;;;;5055054;28;20389;-66
2022/01/11 12:19:04;;;;;;;22.50;15.82;;;3.60;99.90;;;;;;5062138;28;20454;-65
2022/01/11 12:22:01;;;;;;;24.27;16.50;;;3.70;99.90;;;;;;5057722;28;20059;-66
2022/01/11 12:24:41;;;;;;;23.00;15.88;;;3.90;99.90;;;;;;5051190;28;20049;-65
2022/01/11 12:27:10;;;;;;;25.67;14.85;;;4.00;99.90;;;;;;5060350;28;20116;-66
2022/01/11 12:29:55;;;;;;;22.90;15.77;;;4.10;99.90;;;;;;5059221;28;20450;-66
2022/01/11 12:32:23;;;;;;;23.77;15.35;;;4.10;99.90;;;;;;5056107;28;20401;-66
2022/01/11 12:34:50;;;;;;;24.67;15.32;;;4.30;99.90;;;;;;5056797;28;20041;-66
2022/01/11 12:37:20;;;;;;;26.35;15.80;;;4.30;99.90;;;;;;5058358;28;20041;-66